Time;durP1;ratioP1;P1;durP2;ratioP2;P2;SDS_P1;SDS_P2;PMS_P1;PMS_P2;Temp;Humidity;BMP_temperature;BMP_pressure;BME280_temperature;BME280_humidity;BME280_pressure;Samples;Min_cycle;Max_cycle;Signal;HPM_P1;HPM_P2
2021/08/19 07:00:53;;;;;;;21.25;16.73;;;;;;;16.82;100.00;99670.00;1735712;81;21068;-44
2021/08/19 07:03:19;;;;;;;21.82;15.23;;;;;;;16.67;100.00;99662.11;1726628;82;21471;-36
2021/08/19 07:05:46;;;;;;;22.50;16.82;;;;;;;16.61;100.00;99650.44;1724623;81;21037;-35
2021/08/19 07:08:14;;;;;;;18.85;15.45;;;;;;;16.56;100.00;99667.36;1741578;82;21058;-43
2021/08/19 07:10:43;;;;;;;20.82;15.63;;;;;;;16.50;100.00;99682.48;1732723;81;21066;-37
2021/08/19 07:13:10;;;;;;;20.50;15.20;;;;;;;16.50;100.00;99689.09;1731506;82;21068;-37
2021/08/19 07:15:37;;;;;;;17.12;13.80;;;;;;;16.49;100.00;99674.63;1726279;81;21107;-35
2021/08/19 07:18:05;;;;;;;19.85;15.15;;;;;;;16.48;100.00;99672.91;1730024;82;21096;-43
2021/08/19 07:20:33;;;;;;;17.98;14.00;;;;;;;16.44;100.00;99669.50;1728706;81;21106;-44
2021/08/19 07:23:00;;;;;;;18.55;13.43;;;;;;;16.41;100.00;99666.98;1760552;81;21077;-36
2021/08/19 07:25:29;;;;;;;19.00;14.15;;;;;;;16.39;100.00;99671.89;1725458;80;21028;-36
2021/08/19 07:27:56;;;;;;;20.32;13.22;;;;;;;16.38;100.00;99666.20;1723873;82;21081;-36
2021/08/19 07:30:23;;;;;;;18.35;13.03;;;;;;;16.35;100.00;99663.66;1722691;82;21088;-44
2021/08/19 07:32:49;;;;;;;14.33;11.45;;;;;;;16.34;100.00;99677.31;1715068;82;21072;-43
2021/08/19 07:35:16;;;;;;;14.10;11.05;;;;;;;16.35;100.00;99684.77;1720456;82;21036;-43
2021/08/19 07:37:50;;;;;;;13.85;11.78;;;;;;;16.35;100.00;99680.81;1715668;82;21068;-44
2021/08/19 07:40:19;;;;;;;17.87;11.57;;;;;;;16.34;100.00;99679.09;1745737;81;21072;-36
2021/08/19 07:42:46;;;;;;;14.70;11.40;;;;;;;16.34;100.00;99669.39;1718562;81;21011;-43
2021/08/19 07:45:13;;;;;;;17.00;12.07;;;;;;;16.33;100.00;99648.34;1724571;82;21432;-36
2021/08/19 07:47:40;;;;;;;16.70;10.85;;;;;;;16.32;100.00;99651.90;1717441;82;21124;-43
2021/08/19 07:50:08;;;;;;;18.20;12.05;;;;;;;16.31;100.00;99648.86;1711973;82;20974;-36
2021/08/19 07:52:38;;;;;;;15.58;11.75;;;;;;;16.33;100.00;99646.56;1713745;82;21121;-43
2021/08/19 07:55:07;;;;;;;19.45;12.75;;;;;;;16.36;100.00;99639.88;1726315;81;20989;-36
2021/08/19 07:57:43;;;;;;;17.23;13.05;;;;;;;16.40;100.00;99631.38;1739942;82;21084;-36
2021/08/19 08:00:12;;;;;;;17.10;13.00;;;;;;;16.42;100.00;99622.96;1731183;81;21013;-35
2021/08/19 08:02:39;;;;;;;15.88;11.85;;;;;;;16.46;100.00;99629.38;1718155;82;21080;-36
2021/08/19 08:05:07;;;;;;;16.82;12.05;;;;;;;16.50;100.00;99648.17;1729923;81;21612;-35
2021/08/19 08:07:34;;;;;;;15.10;11.73;;;;;;;16.57;100.00;99659.38;1715996;81;21102;-37
2021/08/19 08:10:03;;;;;;;14.58;11.68;;;;;;;16.67;100.00;99654.65;1721338;82;21069;-35
2021/08/19 08:12:30;;;;;;;14.53;10.93;;;;;;;16.80;100.00;99662.57;1713514;82;21026;-35
2021/08/19 08:14:57;;;;;;;19.25;11.90;;;;;;;16.92;100.00;99666.09;1731511;81;21021;-35
2021/08/19 08:17:23;;;;;;;15.58;11.28;;;;;;;17.02;100.00;99674.56;1720897;82;21211;-36
2021/08/19 08:19:52;;;;;;;13.83;11.33;;;;;;;17.10;100.00;99675.59;1721040;81;21050;-35
2021/08/19 08:22:19;;;;;;;14.43;10.50;;;;;;;17.11;100.00;99674.24;1736183;81;21063;-35
2021/08/19 08:24:46;;;;;;;14.25;11.28;;;;;;;17.12;100.00;99686.99;1719716;82;21676;-35
2021/08/19 08:27:13;;;;;;;12.50;10.85;;;;;;;17.10;100.00;99686.16;1729103;82;21081;-35
2021/08/19 08:29:40;;;;;;;12.53;10.53;;;;;;;17.08;100.00;99686.23;1734668;82;21057;-36
2021/08/19 08:32:07;;;;;;;15.10;12.25;;;;;;;17.03;100.00;99677.59;1742645;82;21043;-37
2021/08/19 08:34:34;;;;;;;13.53;11.33;;;;;;;17.01;100.00;99673.70;1742746;82;21029;-41
2021/08/19 08:37:01;;;;;;;16.02;11.97;;;;;;;16.95;100.00;99663.35;1728414;82;22017;-43
2021/08/19 08:39:31;;;;;;;18.67;12.50;;;;;;;16.87;100.00;99654.85;1735951;81;21605;-36
2021/08/19 08:41:58;;;;;;;14.83;10.95;;;;;;;16.80;100.00;99642.75;1718065;80;21122;-44
2021/08/19 08:44:30;;;;;;;14.07;10.72;;;;;;;16.72;100.00;99632.47;1725098;82;21536;-44
2021/08/19 08:46:56;;;;;;;14.70;10.13;;;;;;;16.64;100.00;99642.86;1732373;82;21566;-44
2021/08/19 08:49:23;;;;;;;13.80;9.90;;;;;;;16.55;100.00;99646.70;1727385;82;21566;-35
2021/08/19 08:51:57;;;;;;;12.18;9.30;;;;;;;16.50;100.00;99645.98;1712666;83;21096;-35
2021/08/19 08:54:26;;;;;;;12.28;9.50;;;;;;;16.46;100.00;99651.81;1738829;82;21030;-35
2021/08/19 08:56:53;;;;;;;13.10;9.53;;;;;;;16.43;100.00;99651.08;1718167;82;21105;-35
2021/08/19 08:59:20;;;;;;;11.30;8.78;;;;;;;16.40;100.00;99645.42;1709048;82;21037;-44
2021/08/19 09:01:48;;;;;;;14.30;9.43;;;;;;;16.37;100.00;99645.55;1725272;82;21581;-42
2021/08/19 09:04:14;;;;;;;9.88;8.03;;;;;;;16.32;100.00;99654.08;1720271;82;20979;-42
2021/08/19 09:06:43;;;;;;;10.75;8.65;;;;;;;16.30;100.00;99656.38;1745965;82;21550;-35
2021/08/19 09:09:23;;;;;;;10.38;8.80;;;;;;;16.28;100.00;99670.06;1741097;81;21139;-36
2021/08/19 09:11:56;;;;;;;10.82;9.25;;;;;;;16.28;100.00;99691.17;1720784;82;21056;-36
2021/08/19 09:14:27;;;;;;;9.45;8.00;;;;;;;16.25;100.00;99704.03;1738060;82;21074;-35
2021/08/19 09:16:55;;;;;;;11.25;8.63;;;;;;;16.27;100.00;99729.91;1741251;82;21140;-42
2021/08/19 09:19:25;;;;;;;12.07;9.25;;;;;;;16.29;100.00;99739.09;1744860;82;21665;-35
2021/08/19 09:21:54;;;;;;;11.22;9.00;;;;;;;16.33;100.00;99740.72;1725489;82;21053;-42
2021/08/19 09:24:33;;;;;;;11.97;9.45;;;;;;;16.36;100.00;99726.13;1739144;82;21569;-35
2021/08/19 09:27:15;;;;;;;11.73;9.88;;;;;;;16.37;100.00;99698.80;1741733;82;21062;-42
2021/08/19 09:29:42;;;;;;;14.78;11.48;;;;;;;16.35;100.00;99705.47;1706811;83;20998;-37
2021/08/19 09:32:12;;;;;;;15.60;10.40;;;;;;;16.34;100.00;99702.39;1758564;81;21049;-42
2021/08/19 09:34:41;;;;;;;14.70;9.83;;;;;;;16.33;100.00;99701.99;1740265;81;21001;-43
2021/08/19 09:37:13;;;;;;;15.48;11.00;;;;;;;16.31;100.00;99696.37;1717488;83;21107;-35
2021/08/19 09:39:47;;;;;;;12.00;10.40;;;;;;;16.26;100.00;99699.16;1724691;82;21034;-34
2021/08/19 09:42:14;;;;;;;15.63;11.40;;;;;;;16.21;100.00;99701.08;1724135;82;21101;-38
2021/08/19 09:44:45;;;;;;;15.85;11.30;;;;;;;16.16;100.00;99701.67;1710267;82;21590;-42
2021/08/19 09:47:33;;;;;;;15.93;11.65;;;;;;;16.13;100.00;99706.61;1713531;82;21116;-35
2021/08/19 09:50:17;;;;;;;15.58;11.93;;;;;;;16.09;100.00;99711.56;1694776;84;20981;-35
2021/08/19 09:52:45;;;;;;;14.30;11.73;;;;;;;16.04;100.00;99701.61;1683845;84;21548;-42
2021/08/19 09:55:31;;;;;;;14.93;10.65;;;;;;;16.01;100.00;99699.55;1713621;83;21480;-35
2021/08/19 09:58:00;;;;;;;16.52;11.83;;;;;;;15.98;100.00;99697.84;1717842;83;21066;-43
2021/08/19 10:00:36;;;;;;;16.30;11.93;;;;;;;15.94;100.00;99692.25;1732127;81;21045;-42
2021/08/19 10:03:02;;;;;;;14.47;10.82;;;;;;;15.91;100.00;99671.27;1715211;82;21161;-36
2021/08/19 10:05:28;;;;;;;17.87;11.05;;;;;;;15.88;100.00;99643.64;1720879;82;21023;-37
2021/08/19 10:07:56;;;;;;;12.78;10.60;;;;;;;15.84;100.00;99616.52;1691140;85;21099;-43
2021/08/19 10:10:23;;;;;;;14.90;11.57;;;;;;;15.80;100.00;99605.66;1669102;83;21536;-43
2021/08/19 10:12:51;;;;;;;15.75;9.95;;;;;;;15.78;100.00;99607.95;1727093;82;21064;-44
2021/08/19 10:15:18;;;;;;;13.98;10.15;;;;;;;15.78;100.00;99601.36;1731981;81;22665;-43
2021/08/19 10:17:50;;;;;;;11.90;9.48;;;;;;;15.83;100.00;99609.53;1721184;82;21065;-36
2021/08/19 10:20:21;;;;;;;15.00;10.08;;;;;;;15.89;100.00;99601.88;1740364;82;21578;-43
2021/08/19 10:22:48;;;;;;;11.05;9.58;;;;;;;15.98;100.00;99592.33;1718699;82;21044;-43
2021/08/19 10:25:17;;;;;;;15.88;10.05;;;;;;;16.06;100.00;99580.19;1731734;82;21011;-44
2021/08/19 10:27:44;;;;;;;14.70;9.53;;;;;;;16.14;100.00;99574.21;1743946;82;21102;-43
2021/08/19 10:30:21;;;;;;;11.93;8.90;;;;;;;16.23;100.00;99590.60;1742532;81;21101;-36
2021/08/19 10:32:52;;;;;;;11.45;8.30;;;;;;;16.31;100.00;99603.98;1739215;82;21585;-43
2021/08/19 10:35:28;;;;;;;11.80;8.70;;;;;;;16.40;100.00;99614.21;1739643;82;21023;-36
2021/08/19 10:38:00;;;;;;;9.80;8.15;;;;;;;16.53;100.00;99617.31;1727325;82;21074;-37
2021/08/19 10:40:37;;;;;;;11.75;7.10;;;;;;;16.67;100.00;99615.03;1732271;82;21068;-44
2021/08/19 10:43:32;;;;;;;12.23;7.67;;;;;;;16.83;100.00;99626.81;1738639;82;21132;-36
2021/08/19 10:46:07;;;;;;;9.90;7.53;;;;;;;16.96;100.00;99641.30;1729780;82;21559;-43
2021/08/19 10:48:46;;;;;;;11.20;7.37;;;;;;;17.13;100.00;99657.86;1725283;82;21021;-36
2021/08/19 10:51:13;;;;;;;11.22;7.15;;;;;;;17.23;100.00;99667.18;1737612;81;21670;-36
2021/08/19 10:53:42;;;;;;;9.83;7.20;;;;;;;17.39;99.17;99660.83;1719292;82;21053;-42
2021/08/19 10:56:10;;;;;;;9.78;6.53;;;;;;;17.55;98.57;99647.89;1725661;82;21582;-43
2021/08/19 10:58:41;;;;;;;10.53;6.40;;;;;;;17.65;96.13;99645.77;1711451;84;20981;-42
2021/08/19 11:01:23;;;;;;;9.15;6.35;;;;;;;17.73;95.66;99650.31;1741633;82;21104;-43
2021/08/19 11:03:52;;;;;;;11.68;6.75;;;;;;;17.81;96.37;99657.50;1712581;81;21030;-43
2021/08/19 11:06:26;;;;;;;8.40;5.65;;;;;;;17.86;93.94;99679.78;1716270;82;21099;-36
2021/08/19 11:08:58;;;;;;;7.15;6.45;;;;;;;17.82;93.41;99684.36;1691810;84;21068;-35
2021/08/19 11:11:35;;;;;;;8.83;5.70;;;;;;;17.83;93.23;99698.45;1722743;81;21606;-36
2021/08/19 11:14:14;;;;;;;9.28;6.55;;;;;;;17.84;93.90;99708.10;1717843;82;21052;-44
2021/08/19 11:16:43;;;;;;;10.23;5.80;;;;;;;17.88;93.56;99709.72;1741606;81;21074;-43
2021/08/19 11:19:22;;;;;;;9.50;5.70;;;;;;;17.88;92.33;99701.31;1732427;82;21056;-44
2021/08/19 11:21:55;;;;;;;9.75;5.30;;;;;;;17.90;92.05;99709.19;1736138;81;21064;-43
2021/08/19 11:24:24;;;;;;;6.65;5.95;;;;;;;17.88;91.46;99719.84;1744455;82;21018;-43
2021/08/19 11:27:00;;;;;;;11.63;7.03;;;;;;;17.86;90.44;99713.75;1730051;82;21068;-43
2021/08/19 11:29:37;;;;;;;8.65;6.20;;;;;;;17.79;90.65;99702.52;1723204;82;21045;-43
2021/08/19 11:32:14;;;;;;;8.38;6.03;;;;;;;17.72;91.36;99697.53;1731992;82;21091;-36
2021/08/19 11:34:50;;;;;;;10.85;6.67;;;;;;;17.65;91.28;99691.59;1727365;82;21068;-35
2021/08/19 11:37:31;;;;;;;13.08;6.78;;;;;;;17.59;91.81;99693.15;1737420;81;21077;-42
2021/08/19 11:40:03;;;;;;;10.93;6.67;;;;;;;17.55;92.28;99692.39;1727532;82;21030;-36
2021/08/19 11:42:28;;;;;;;8.88;6.42;;;;;;;17.55;92.43;99694.17;1724242;82;21081;-43
2021/08/19 11:45:22;;;;;;;13.08;5.87;;;;;;;17.57;92.68;99710.87;1722839;82;21120;-43
2021/08/19 11:47:51;;;;;;;11.48;7.25;;;;;;;17.60;92.37;99720.45;1724769;81;21563;-44
2021/08/19 11:50:23;;;;;;;11.65;7.03;;;;;;;17.64;91.50;99718.11;1729957;80;21061;-42
2021/08/19 11:53:00;;;;;;;6.42;5.78;;;;;;;17.67;91.52;99716.65;1741427;81;21146;-35
2021/08/19 11:55:33;;;;;;;8.75;6.50;;;;;;;17.71;92.02;99698.42;1716255;83;21038;-42
2021/08/19 11:58:24;;;;;;;11.33;7.08;;;;;;;17.76;93.66;99701.33;1737995;81;21064;-43
2021/08/19 12:01:05;;;;;;;10.00;5.70;;;;;;;17.80;93.83;99695.47;1742807;82;21002;-36
2021/08/19 12:03:40;;;;;;;9.80;6.95;;;;;;;17.88;92.85;99693.84;1715813;82;21119;-43
2021/08/19 12:06:14;;;;;;;9.20;6.15;;;;;;;17.91;92.03;99685.30;1719743;82;21576;-42
2021/08/19 12:09:03;;;;;;;13.25;6.17;;;;;;;17.96;93.63;99676.72;1743613;82;21046;-42
2021/08/19 12:11:42;;;;;;;13.38;6.53;;;;;;;18.02;92.38;99660.59;1713006;81;21124;-36
2021/08/19 12:14:12;;;;;;;9.53;7.20;;;;;;;18.07;91.91;99655.12;1680001;85;21010;-36
2021/08/19 12:16:47;;;;;;;11.10;7.40;;;;;;;18.07;89.21;99655.98;1715708;82;21554;-35
2021/08/19 12:19:25;;;;;;;11.88;6.67;;;;;;;18.07;89.91;99651.15;1720374;82;21003;-35
2021/08/19 12:21:59;;;;;;;11.70;7.22;;;;;;;18.07;91.13;99645.39;1722544;82;21160;-42
2021/08/19 12:24:42;;;;;;;14.65;7.58;;;;;;;18.13;92.17;99638.13;1737884;81;21074;-43
2021/08/19 12:27:16;;;;;;;10.98;7.58;;;;;;;18.17;90.03;99641.05;1739997;82;21125;-42
2021/08/19 12:29:52;;;;;;;12.15;8.03;;;;;;;18.15;89.67;99645.53;1690414;82;21039;-35
2021/08/19 12:32:32;;;;;;;12.80;7.80;;;;;;;18.12;89.19;99642.56;1720780;82;21057;-34
2021/08/19 12:35:07;;;;;;;11.85;7.67;;;;;;;18.11;90.22;99639.52;1708690;82;21401;-35
2021/08/19 12:37:36;;;;;;;10.65;7.17;;;;;;;18.12;90.14;99641.23;1734141;82;21100;-42
2021/08/19 12:40:15;;;;;;;10.93;7.28;;;;;;;18.07;87.73;99636.13;1725244;82;21105;-42
2021/08/19 12:42:44;;;;;;;9.90;7.00;;;;;;;18.05;89.05;99628.72;1731469;81;21095;-35
2021/08/19 12:45:22;;;;;;;11.83;6.72;;;;;;;18.05;89.88;99623.42;1738043;82;21056;-34
2021/08/19 12:48:04;;;;;;;9.65;6.87;;;;;;;18.12;88.39;99627.14;1742346;81;21149;-36
2021/08/19 12:50:31;;;;;;;9.18;6.90;;;;;;;18.15;88.61;99627.00;1737575;82;21166;-43
2021/08/19 12:53:13;;;;;;;11.53;7.50;;;;;;;18.19;88.36;99633.90;1736502;81;21612;-43
2021/08/19 12:55:41;;;;;;;9.55;6.70;;;;;;;18.21;87.49;99623.66;1731234;81;21061;-43
2021/08/19 12:58:10;;;;;;;9.00;6.60;;;;;;;18.25;87.72;99625.23;1718452;82;21046;-43
2021/08/19 13:00:37;;;;;;;10.15;6.80;;;;;;;18.31;87.37;99628.09;1719823;82;21537;-43
2021/08/19 13:03:05;;;;;;;11.10;7.05;;;;;;;18.32;86.84;99635.98;1712783;82;21064;-43
2021/08/19 13:05:33;;;;;;;13.72;6.95;;;;;;;18.34;86.07;99634.13;1742715;82;21014;-43
2021/08/19 13:08:02;;;;;;;8.28;6.60;;;;;;;18.41;85.75;99639.16;1727765;82;21635;-42
2021/08/19 13:10:29;;;;;;;7.58;6.78;;;;;;;18.52;85.87;99638.24;1722362;82;21036;-43
2021/08/19 13:12:57;;;;;;;11.35;7.50;;;;;;;18.72;86.91;99644.02;1729897;82;21092;-36
2021/08/19 13:15:24;;;;;;;8.95;7.10;;;;;;;18.90;84.66;99652.95;1729091;82;21536;-35
2021/08/19 13:17:51;;;;;;;11.45;7.80;;;;;;;18.98;83.09;99645.08;1733585;81;21120;-43
2021/08/19 13:20:18;;;;;;;11.68;7.20;;;;;;;18.95;82.50;99641.22;1732030;82;21038;-42
2021/08/19 13:22:45;;;;;;;11.75;7.35;;;;;;;18.91;82.62;99656.03;1736558;81;21089;-42
2021/08/19 13:25:13;;;;;;;9.68;7.33;;;;;;;18.88;82.61;99645.08;1722882;82;21017;-43
2021/08/19 13:27:42;;;;;;;10.55;7.90;;;;;;;18.84;82.63;99646.13;1731604;82;21102;-37
2021/08/19 13:30:13;;;;;;;8.35;7.40;;;;;;;18.76;81.44;99643.83;1691303;83;21058;-36
2021/08/19 13:32:41;;;;;;;8.58;7.67;;;;;;;18.71;82.42;99640.98;1725631;81;21020;-36
2021/08/19 13:35:09;;;;;;;11.12;7.65;;;;;;;18.66;81.98;99628.36;1720310;82;21037;-43
2021/08/19 13:37:36;;;;;;;11.38;8.18;;;;;;;18.61;82.70;99616.20;1718542;81;21090;-35
2021/08/19 13:40:05;;;;;;;9.18;7.65;;;;;;;18.66;83.34;99614.66;1730875;82;20980;-35
2021/08/19 13:42:31;;;;;;;7.22;6.22;;;;;;;18.72;83.52;99606.46;1721753;82;21147;-43
2021/08/19 13:44:58;;;;;;;9.80;6.15;;;;;;;18.83;82.39;99607.31;1714250;82;21039;-42
2021/08/19 13:47:26;;;;;;;12.50;5.67;;;;;;;18.94;81.71;99609.48;1739641;82;21107;-35
2021/08/19 13:49:53;;;;;;;11.65;5.40;;;;;;;19.06;80.53;99613.77;1739884;82;21054;-36
2021/08/19 13:52:22;;;;;;;7.08;4.92;;;;;;;19.09;79.96;99607.02;1718945;80;21072;-36
2021/08/19 13:54:48;;;;;;;6.47;4.95;;;;;;;19.11;79.67;99601.16;1721786;82;21027;-36
2021/08/19 13:57:15;;;;;;;8.60;4.65;;;;;;;19.16;80.31;99596.98;1710666;82;21152;-37
2021/08/19 13:59:43;;;;;;;10.23;4.62;;;;;;;19.25;79.12;99600.98;1686012;84;21468;-36
2021/08/19 14:02:11;;;;;;;5.72;4.30;;;;;;;19.27;79.05;99600.00;1727888;82;21101;-43
2021/08/19 14:04:38;;;;;;;7.22;4.25;;;;;;;19.31;79.41;99597.61;1715996;82;21559;-35
2021/08/19 14:07:04;;;;;;;6.33;4.35;;;;;;;19.35;79.08;99596.51;1743439;82;21109;-43
2021/08/19 14:09:33;;;;;;;5.05;3.75;;;;;;;19.38;78.37;99592.41;1752051;82;21046;-43
2021/08/19 14:12:00;;;;;;;8.08;4.22;;;;;;;19.41;77.58;99588.73;1727458;80;21076;-36
2021/08/19 14:14:27;;;;;;;4.67;3.92;;;;;;;19.46;76.69;99592.03;1739884;82;21026;-35
2021/08/19 14:16:55;;;;;;;4.92;4.28;;;;;;;19.51;76.89;99583.86;1741941;81;21141;-36
2021/08/19 14:19:24;;;;;;;4.85;4.30;;;;;;;19.54;76.48;99575.73;1742073;81;21050;-36
2021/08/19 14:21:52;;;;;;;5.92;4.33;;;;;;;19.59;77.15;99577.27;1738529;82;21092;-44
2021/08/19 14:24:21;;;;;;;6.40;3.80;;;;;;;19.68;76.54;99601.19;1723415;82;21552;-35
2021/08/19 14:26:48;;;;;;;8.93;4.22;;;;;;;19.74;73.43;99596.05;1736366;82;21559;-35
